createdAt,value
2023-04-05T00:01:08.175Z,60.90
2023-04-05T00:03:36.357Z,60.90
2023-04-05T00:06:05.341Z,60.80
2023-04-05T00:08:33.281Z,60.90
2023-04-05T00:11:01.218Z,60.90
2023-04-05T00:13:29.196Z,60.90
2023-04-05T00:16:01.353Z,61.10
2023-04-05T00:18:34.000Z,61.00
2023-04-05T00:21:01.916Z,61.00
2023-04-05T00:23:29.743Z,61.30
2023-04-05T00:25:57.581Z,61.50
2023-04-05T00:28:25.471Z,61.50
2023-04-05T00:30:53.560Z,61.60
2023-04-05T00:33:22.861Z,61.30
2023-04-05T00:35:50.918Z,62.00
2023-04-05T00:38:18.800Z,62.00
2023-04-05T00:40:46.647Z,62.00
2023-04-05T00:43:15.365Z,63.50
2023-04-05T00:45:43.609Z,62.10
2023-04-05T00:48:12.101Z,61.80
2023-04-05T00:50:41.687Z,62.00
2023-04-05T00:53:10.490Z,62.50
2023-04-05T00:55:38.512Z,62.60
2023-04-05T00:58:06.355Z,62.40
2023-04-05T01:00:34.452Z,62.70
2023-04-05T01:03:05.173Z,62.80
2023-04-05T01:05:40.804Z,63.00
2023-04-05T01:08:17.310Z,63.10
2023-04-05T01:10:49.761Z,63.00
2023-04-05T01:13:17.805Z,62.90
2023-04-05T01:15:45.713Z,62.80
2023-04-05T01:18:14.940Z,62.90
2023-04-05T01:20:47.562Z,63.10
2023-04-05T01:23:45.208Z,63.20
2023-04-05T01:26:43.245Z,63.60
2023-04-05T01:29:54.698Z,63.50
2023-04-05T01:32:50.631Z,63.70
2023-04-05T01:35:23.457Z,63.40
2023-04-05T01:37:58.351Z,63.10
2023-04-05T01:40:26.996Z,65.20
2023-04-05T01:42:54.863Z,64.40
2023-04-05T01:45:24.186Z,63.30
2023-04-05T01:47:52.104Z,63.60
2023-04-05T01:50:20.537Z,63.50
2023-04-05T01:52:48.695Z,63.40
2023-04-05T01:55:16.643Z,63.40
2023-04-05T01:57:44.714Z,63.50
2023-04-05T02:00:14.296Z,62.90
2023-04-05T02:02:43.522Z,64.10
2023-04-05T02:05:11.883Z,64.20
2023-04-05T02:07:39.695Z,64.20
2023-04-05T02:10:08.930Z,64.20
2023-04-05T02:12:36.877Z,64.50
2023-04-05T02:15:05.246Z,64.30
2023-04-05T02:17:39.361Z,64.30
2023-04-05T02:20:12.314Z,64.60
2023-04-05T02:22:40.896Z,64.70
2023-04-05T02:25:09.710Z,64.80
2023-04-05T02:27:37.860Z,64.90
2023-04-05T02:30:06.745Z,64.70
2023-04-05T02:32:34.589Z,62.90
2023-04-05T02:35:02.555Z,64.90
2023-04-05T02:37:31.961Z,64.90
2023-04-05T02:39:59.836Z,65.00
2023-04-05T02:42:27.870Z,64.90
2023-04-05T02:44:55.727Z,64.70
2023-04-05T02:47:23.674Z,64.80
2023-04-05T02:49:51.669Z,65.00
2023-04-05T02:52:19.486Z,65.10
2023-04-05T02:54:49.418Z,65.20
2023-04-05T02:57:17.511Z,65.10
2023-04-05T02:59:45.540Z,65.00
2023-04-05T03:02:13.425Z,65.10
2023-04-05T03:04:41.344Z,65.30
2023-04-05T03:07:10.484Z,65.40
2023-04-05T03:09:38.534Z,65.30
2023-04-05T03:12:07.938Z,65.40
2023-04-05T03:14:36.794Z,65.30
2023-04-05T03:17:04.861Z,65.30
2023-04-05T03:19:33.045Z,65.50
2023-04-05T03:22:00.883Z,65.50
2023-04-05T03:24:28.689Z,65.60
2023-04-05T03:26:56.616Z,65.60
2023-04-05T03:29:25.780Z,65.60
2023-04-05T03:31:53.730Z,66.50
2023-04-05T03:34:22.163Z,65.50
2023-04-05T03:36:50.983Z,65.90
2023-04-05T03:39:18.787Z,66.00
2023-04-05T03:41:46.598Z,66.10
2023-04-05T03:44:14.838Z,65.90
2023-04-05T03:46:45.205Z,66.10
2023-04-05T03:49:16.521Z,66.10
2023-04-05T03:51:44.825Z,66.20
2023-04-05T03:54:12.683Z,66.10
2023-04-05T03:56:40.662Z,66.20
2023-04-05T03:59:08.628Z,66.00
2023-04-05T04:01:37.004Z,66.00
2023-04-05T04:04:06.236Z,66.10
2023-04-05T04:06:34.217Z,66.30
2023-04-05T04:09:02.107Z,66.10
2023-04-05T04:11:29.911Z,66.20
2023-04-05T04:13:57.784Z,66.10
2023-04-05T04:16:27.474Z,66.00
2023-04-05T04:18:56.901Z,66.00
2023-04-05T04:21:26.208Z,65.90
2023-04-05T04:23:55.723Z,66.20
2023-04-05T04:26:28.779Z,66.30
2023-04-05T04:28:56.723Z,66.30
2023-04-05T04:31:24.865Z,66.30
2023-04-05T04:33:53.449Z,66.60
2023-04-05T04:36:35.081Z,66.50
2023-04-05T04:39:06.968Z,66.80
2023-04-05T04:41:35.775Z,66.70
2023-04-05T04:44:04.503Z,66.80
2023-04-05T04:46:34.925Z,66.90
2023-04-05T04:49:05.731Z,67.10
2023-04-05T04:51:33.843Z,66.90
2023-04-05T04:54:01.729Z,67.10
2023-04-05T04:56:31.041Z,67.20
2023-04-05T04:58:59.308Z,68.50
2023-04-05T05:01:27.229Z,67.20
2023-04-05T05:03:55.258Z,67.00
2023-04-05T05:06:23.493Z,67.00
2023-04-05T05:08:51.513Z,67.30
2023-04-05T05:11:19.406Z,67.80
2023-04-05T05:13:51.922Z,67.50
2023-04-05T05:16:21.824Z,67.70
2023-04-05T05:18:51.103Z,67.80
2023-04-05T05:21:19.047Z,67.90
2023-04-05T05:23:47.066Z,67.60
2023-04-05T05:26:15.358Z,67.90
2023-04-05T05:28:43.377Z,67.90
2023-04-05T05:31:14.205Z,67.80
2023-04-05T05:33:42.305Z,67.90
2023-04-05T05:36:10.566Z,69.50
2023-04-05T05:38:38.472Z,68.40
2023-04-05T05:41:06.853Z,68.20
2023-04-05T05:43:34.708Z,69.80
2023-04-05T05:46:03.068Z,68.30
2023-04-05T05:48:32.344Z,69.20
2023-04-05T05:51:03.741Z,68.60
2023-04-05T05:53:31.677Z,68.50
2023-04-05T05:56:00.829Z,68.60
2023-04-05T05:58:28.712Z,68.90
2023-04-05T06:00:57.441Z,68.90
2023-04-05T06:03:25.876Z,69.10
2023-04-05T06:05:56.460Z,69.10
2023-04-05T06:08:25.055Z,69.40
2023-04-05T06:10:53.599Z,69.50
2023-04-05T06:13:21.768Z,69.50
2023-04-05T06:15:49.842Z,69.50
2023-04-05T06:18:17.889Z,69.40
2023-04-05T06:20:45.748Z,69.60
2023-04-05T06:23:15.389Z,69.50
2023-04-05T06:25:44.716Z,69.80
2023-04-05T06:28:12.685Z,69.70
2023-04-05T06:30:40.891Z,69.80
2023-04-05T06:33:09.023Z,69.90
2023-04-05T06:35:37.270Z,70.00
2023-04-05T06:38:05.182Z,70.10
2023-04-05T06:40:34.439Z,70.20
2023-04-05T06:43:04.915Z,70.30
2023-04-05T06:45:32.916Z,68.50
2023-04-05T06:48:00.828Z,70.70
2023-04-05T06:50:28.693Z,70.80
2023-04-05T06:52:56.526Z,71.00
2023-04-05T06:55:24.371Z,71.00
2023-04-05T06:57:53.630Z,71.10
2023-04-05T07:00:21.794Z,72.80
2023-04-05T07:02:50.161Z,71.10
2023-04-05T07:05:18.096Z,70.60
2023-04-05T07:07:48.703Z,71.10
2023-04-05T07:10:16.728Z,71.00
2023-04-05T07:12:46.644Z,70.80
2023-04-05T07:15:16.094Z,70.60
2023-04-05T07:17:44.548Z,70.40
2023-04-05T07:20:14.139Z,70.20
2023-04-05T07:22:42.368Z,70.10
2023-04-05T07:25:10.940Z,70.20
2023-04-05T07:27:39.808Z,70.10
2023-04-05T07:30:09.397Z,70.20
2023-04-05T07:32:38.718Z,70.40
2023-04-05T07:35:08.100Z,71.90
2023-04-05T07:37:35.988Z,70.40
2023-04-05T07:40:05.950Z,70.20
2023-04-05T07:42:33.873Z,69.80
2023-04-05T07:45:01.690Z,69.30
2023-04-05T07:47:29.588Z,69.10
2023-04-05T07:49:59.280Z,67.70
2023-04-05T07:52:27.268Z,68.40
2023-04-05T07:54:55.774Z,68.30
2023-04-05T07:57:23.853Z,68.10
2023-04-05T07:59:52.627Z,67.60
2023-04-05T08:02:20.462Z,67.60
2023-04-05T08:04:48.666Z,67.30
2023-04-05T08:07:17.913Z,66.80
2023-04-05T08:09:45.828Z,66.70
2023-04-05T08:12:13.781Z,66.70
2023-04-05T08:14:41.965Z,67.10
2023-04-05T08:17:09.892Z,66.60
2023-04-05T08:19:37.772Z,66.50
2023-04-05T08:22:05.865Z,66.40
2023-04-05T08:24:35.761Z,65.90
2023-04-05T08:27:03.883Z,65.40
2023-04-05T08:29:31.938Z,65.00
2023-04-05T08:31:59.965Z,63.80
2023-04-05T08:34:27.826Z,63.20
2023-04-05T08:36:59.376Z,62.50
2023-04-05T08:39:27.765Z,62.30
2023-04-05T08:42:04.732Z,62.60
2023-04-05T08:44:33.029Z,62.00
2023-04-05T08:47:01.293Z,60.50
2023-04-05T08:49:29.335Z,59.70
2023-04-05T08:51:57.561Z,59.90
2023-04-05T08:54:25.566Z,59.60
2023-04-05T08:56:54.556Z,58.70
2023-04-05T08:59:24.670Z,58.90
2023-04-05T09:01:53.497Z,58.90
2023-04-05T09:04:24.316Z,58.90
2023-04-05T09:06:53.294Z,57.60
2023-04-05T09:09:22.428Z,57.60
2023-04-05T09:11:51.321Z,56.50
2023-04-05T09:14:20.099Z,56.40
2023-04-05T09:16:49.855Z,55.70
2023-04-05T09:19:17.780Z,54.50
2023-04-05T09:22:02.586Z,55.20
2023-04-05T09:24:40.818Z,54.20
2023-04-05T09:27:11.080Z,53.40
2023-04-05T09:29:40.147Z,52.80
2023-04-05T09:32:10.820Z,52.70
2023-04-05T09:34:39.407Z,51.90
2023-04-05T09:37:16.805Z,52.10
2023-04-05T09:39:45.732Z,51.60
2023-04-05T09:42:15.618Z,51.90
2023-04-05T09:44:51.855Z,51.60
2023-04-05T09:47:22.202Z,50.80
2023-04-05T09:49:50.904Z,51.40
2023-04-05T09:52:20.550Z,50.90
2023-04-05T09:54:49.474Z,51.30
2023-04-05T09:57:18.629Z,51.70
2023-04-05T09:59:47.018Z,52.30
2023-04-05T10:02:16.431Z,50.90
2023-04-05T10:04:48.725Z,50.50
2023-04-05T10:07:18.608Z,50.30
2023-04-05T10:09:47.929Z,49.20
2023-04-05T10:12:25.073Z,48.80
2023-04-05T10:14:53.195Z,47.80
2023-04-05T10:17:25.886Z,47.90
2023-04-05T10:20:08.479Z,48.00
2023-04-05T10:22:42.016Z,47.70
2023-04-05T10:25:16.251Z,47.90
2023-04-05T10:27:49.788Z,48.30
2023-04-05T10:30:18.643Z,48.90
2023-04-05T10:33:02.024Z,48.50
2023-04-05T10:35:36.110Z,48.10
2023-04-05T10:38:18.750Z,48.10
2023-04-05T10:40:49.672Z,47.60
2023-04-05T10:43:22.165Z,47.60
2023-04-05T10:45:56.191Z,47.80
2023-04-05T10:48:35.132Z,47.20
2023-04-05T10:51:05.523Z,46.70
2023-04-05T10:53:34.718Z,46.70
2023-04-05T10:56:03.123Z,46.70
2023-04-05T10:58:33.242Z,46.90
2023-04-05T11:01:04.492Z,45.90
2023-04-05T11:03:46.852Z,46.20
2023-04-05T11:06:32.906Z,45.70
2023-04-05T11:09:10.613Z,45.60
2023-04-05T11:11:41.116Z,45.80
2023-04-05T11:14:25.704Z,45.80
2023-04-05T11:16:56.804Z,45.30
2023-04-05T11:19:54.749Z,45.60
2023-04-05T11:22:28.937Z,44.10
2023-04-05T11:24:58.717Z,44.80
2023-04-05T11:27:28.279Z,45.50
2023-04-05T11:29:57.076Z,45.40
2023-04-05T11:32:25.857Z,45.40
2023-04-05T11:35:01.145Z,45.50
2023-04-05T11:37:55.505Z,44.70
2023-04-05T11:40:28.392Z,44.00
2023-04-05T11:43:04.072Z,44.30
2023-04-05T11:45:33.004Z,44.60
2023-04-05T11:48:02.324Z,44.80
2023-04-05T11:50:31.003Z,44.50
2023-04-05T11:53:14.894Z,44.20
2023-04-05T11:55:44.297Z,43.80
2023-04-05T11:58:21.389Z,44.20
2023-04-05T12:00:59.656Z,43.70
2023-04-05T12:03:29.934Z,43.50
2023-04-05T12:05:59.439Z,44.00
2023-04-05T12:08:49.922Z,43.60
2023-04-05T12:11:24.827Z,42.70
2023-04-05T12:13:58.475Z,43.10
2023-04-05T12:16:26.550Z,42.70
2023-04-05T12:18:55.635Z,42.70
2023-04-05T12:21:24.474Z,42.20
2023-04-05T12:23:54.524Z,42.20
2023-04-05T12:26:22.601Z,43.10
2023-04-05T12:28:52.139Z,42.70
2023-04-05T12:31:34.889Z,42.40
2023-04-05T12:34:02.885Z,42.60
2023-04-05T12:36:32.627Z,42.90
2023-04-05T12:39:02.680Z,42.60
2023-04-05T12:41:31.198Z,42.90
2023-04-05T12:44:01.807Z,42.70
2023-04-05T12:46:40.611Z,42.80
2023-04-05T12:49:11.689Z,42.20
2023-04-05T12:51:43.815Z,42.70
2023-04-05T12:54:15.180Z,42.30
2023-04-05T12:56:43.167Z,42.10
2023-04-05T12:59:11.227Z,42.30
2023-04-05T13:01:39.836Z,42.00
2023-04-05T13:04:16.250Z,41.80
2023-04-05T13:06:47.046Z,41.40
2023-04-05T13:09:17.304Z,41.70
2023-04-05T13:11:46.145Z,41.30
2023-04-05T13:14:14.062Z,40.80
2023-04-05T13:16:41.958Z,40.70
2023-04-05T13:19:09.748Z,40.80
2023-04-05T13:21:37.626Z,41.10
2023-04-05T13:24:05.832Z,40.80
2023-04-05T13:26:37.271Z,41.00
2023-04-05T13:29:05.370Z,40.60
2023-04-05T13:31:34.521Z,40.60
2023-04-05T13:34:02.597Z,40.30
2023-04-05T13:36:31.085Z,40.30
2023-04-05T13:38:58.925Z,41.00
2023-04-05T13:41:26.907Z,41.00
2023-04-05T13:43:56.198Z,41.00
2023-04-05T13:46:24.178Z,39.90
2023-04-05T13:48:52.172Z,40.40
2023-04-05T13:51:20.194Z,40.80
2023-04-05T13:53:48.817Z,40.70
2023-04-05T13:56:16.662Z,41.20
2023-04-05T13:58:44.953Z,41.60
2023-04-05T14:01:15.023Z,41.40
2023-04-05T14:03:43.127Z,41.20
2023-04-05T14:06:11.107Z,41.30
2023-04-05T14:08:39.096Z,41.60
2023-04-05T14:11:08.030Z,41.60
2023-04-05T14:13:36.544Z,41.10
2023-04-05T14:16:04.560Z,40.60
2023-04-05T14:18:33.762Z,40.40
2023-04-05T14:21:01.770Z,40.10
2023-04-05T14:23:29.668Z,40.20
2023-04-05T14:25:57.646Z,40.00
2023-04-05T14:28:25.715Z,40.40
2023-04-05T14:30:53.589Z,39.90
2023-04-05T14:33:21.483Z,40.10
2023-04-05T14:35:50.791Z,40.30
2023-04-05T14:38:18.633Z,39.70
2023-04-05T14:40:46.501Z,39.80
2023-04-05T14:43:14.347Z,39.00
2023-04-05T14:45:42.244Z,39.10
2023-04-05T14:48:10.619Z,38.60
2023-04-05T14:50:38.599Z,38.20
2023-04-05T14:53:08.494Z,38.00
2023-04-05T14:55:36.577Z,38.40
2023-04-05T14:58:05.033Z,38.70
2023-04-05T15:00:34.373Z,39.00
2023-04-05T15:03:02.435Z,38.40
2023-04-05T15:05:30.383Z,39.10
2023-04-05T15:07:58.245Z,38.70
2023-04-05T15:10:30.706Z,38.50
2023-04-05T15:12:58.590Z,37.40
2023-04-05T15:15:26.444Z,38.10
2023-04-05T15:17:54.595Z,38.20
2023-04-05T15:20:22.571Z,37.50
2023-04-05T15:22:50.893Z,37.70
2023-04-05T15:25:18.872Z,38.50
2023-04-05T15:27:48.650Z,37.10
2023-04-05T15:30:17.507Z,35.70
2023-04-05T15:32:45.776Z,36.00
2023-04-05T15:35:14.025Z,34.90
2023-04-05T15:37:41.872Z,34.80
2023-04-05T15:40:10.984Z,35.30
2023-04-05T15:42:39.100Z,35.10
2023-04-05T15:45:09.832Z,35.20
2023-04-05T15:47:38.004Z,34.80
2023-04-05T15:50:06.678Z,34.90
2023-04-05T15:52:35.023Z,34.20
2023-04-05T15:55:03.453Z,34.30
2023-04-05T15:57:31.353Z,33.90
2023-04-05T15:59:59.221Z,34.70
2023-04-05T16:02:28.647Z,34.00
2023-04-05T16:04:56.493Z,33.90
2023-04-05T16:07:24.500Z,34.20
2023-04-05T16:09:52.483Z,33.80
2023-04-05T16:12:20.409Z,33.90
2023-04-05T16:14:48.832Z,32.90
2023-04-05T16:17:16.818Z,33.00
2023-04-05T16:19:46.043Z,32.20
2023-04-05T16:22:14.071Z,31.30
2023-04-05T16:24:41.941Z,32.20
2023-04-05T16:27:10.571Z,32.00
2023-04-05T16:29:38.398Z,31.60
2023-04-05T16:32:06.479Z,31.60
2023-04-05T16:34:34.425Z,31.10
2023-04-05T16:37:03.731Z,30.50
2023-04-05T16:39:31.560Z,30.40
2023-04-05T16:41:59.985Z,30.60
2023-04-05T16:44:28.677Z,30.80
2023-04-05T16:46:57.700Z,31.30
2023-04-05T16:49:25.691Z,31.60
2023-04-05T16:51:53.476Z,31.80
2023-04-05T16:54:22.709Z,32.40
2023-04-05T16:56:50.788Z,32.60
2023-04-05T16:59:18.731Z,33.00
2023-04-05T17:01:46.680Z,33.40
2023-04-05T17:04:15.036Z,33.50
2023-04-05T17:06:42.998Z,33.50
2023-04-05T17:09:10.893Z,34.50
2023-04-05T17:11:40.193Z,33.50
2023-04-05T17:14:08.080Z,33.90
2023-04-05T17:16:36.345Z,34.50
2023-04-05T17:19:04.531Z,34.20
2023-04-05T17:21:32.557Z,34.00
2023-04-05T17:24:00.464Z,34.40
2023-04-05T17:26:29.118Z,34.60
2023-04-05T17:28:58.326Z,34.60
2023-04-05T17:31:26.312Z,34.60
2023-04-05T17:33:54.276Z,34.80
2023-04-05T17:36:22.172Z,35.10
2023-04-05T17:38:50.653Z,35.00
2023-04-05T17:41:18.435Z,35.10
2023-04-05T17:43:46.962Z,35.50
2023-04-05T17:46:18.398Z,35.60
2023-04-05T17:48:50.568Z,35.50
2023-04-05T17:51:20.690Z,35.40
2023-04-05T17:53:48.692Z,35.60
2023-04-05T17:56:16.611Z,35.70
2023-04-05T17:58:44.443Z,36.00
2023-04-05T18:01:14.108Z,36.30
2023-04-05T18:03:44.039Z,36.50
2023-04-05T18:06:12.347Z,36.30
2023-04-05T18:08:40.272Z,36.70
2023-04-05T18:11:08.278Z,37.00
2023-04-05T18:13:36.279Z,37.10
2023-04-05T18:16:04.301Z,37.10
2023-04-05T18:18:32.680Z,37.10
2023-04-05T18:21:02.706Z,37.30
2023-04-05T18:23:30.628Z,37.50
2023-04-05T18:25:59.035Z,37.50
2023-04-05T18:28:27.025Z,37.60
2023-04-05T18:30:54.906Z,37.90
2023-04-05T18:33:23.024Z,38.00
2023-04-05T18:35:51.783Z,38.40
2023-04-05T18:38:21.726Z,38.80
2023-04-05T18:40:49.813Z,39.00
2023-04-05T18:43:17.873Z,39.00
2023-04-05T18:45:45.789Z,39.50
2023-04-05T18:48:14.038Z,39.60
2023-04-05T18:50:41.935Z,39.90
2023-04-05T18:53:09.744Z,40.20
2023-04-05T18:55:39.167Z,40.10
2023-04-05T18:58:07.019Z,40.50
2023-04-05T19:00:35.010Z,41.20
2023-04-05T19:03:02.957Z,40.70
2023-04-05T19:05:30.812Z,40.80
2023-04-05T19:07:58.628Z,40.20
2023-04-05T19:10:26.619Z,40.10
2023-04-05T19:12:56.016Z,40.50
2023-04-05T19:15:23.906Z,40.90
2023-04-05T19:17:51.862Z,41.40
2023-04-05T19:20:19.822Z,41.40
2023-04-05T19:22:47.674Z,41.20
2023-04-05T19:25:15.657Z,41.70
2023-04-05T19:27:43.480Z,42.10
2023-04-05T19:30:13.406Z,42.30
2023-04-05T19:32:41.303Z,42.50
2023-04-05T19:35:10.553Z,42.70
2023-04-05T19:37:38.389Z,42.90
2023-04-05T19:40:07.326Z,43.00
2023-04-05T19:42:35.218Z,43.50
2023-04-05T19:45:03.354Z,43.60
2023-04-05T19:47:32.587Z,44.30
2023-04-05T19:50:00.971Z,44.20
2023-04-05T19:52:36.806Z,44.20
2023-04-05T19:55:27.021Z,45.40
2023-04-05T19:57:55.488Z,45.10
2023-04-05T20:00:35.590Z,44.90
2023-04-05T20:03:24.715Z,45.50
2023-04-05T20:06:04.027Z,45.50
2023-04-05T20:08:33.466Z,46.20
2023-04-05T20:11:01.509Z,45.80
2023-04-05T20:13:29.371Z,45.90
2023-04-05T20:15:57.282Z,46.20
2023-04-05T20:18:27.790Z,46.10
2023-04-05T20:20:57.390Z,46.60
2023-04-05T20:23:29.581Z,46.70
2023-04-05T20:25:57.544Z,47.00
2023-04-05T20:28:43.998Z,46.80
2023-04-05T20:31:18.519Z,47.40
2023-04-05T20:33:49.945Z,46.90
2023-04-05T20:36:19.867Z,46.80
2023-04-05T20:38:48.811Z,46.20
2023-04-05T20:41:18.932Z,45.90
2023-04-05T20:43:47.830Z,45.90
2023-04-05T20:46:17.090Z,46.50
2023-04-05T20:48:47.652Z,46.90
2023-04-05T20:51:16.682Z,47.20
2023-04-05T20:53:44.838Z,47.10
2023-04-05T20:56:13.728Z,47.10
2023-04-05T20:58:41.955Z,47.10
2023-04-05T21:01:11.057Z,47.60
2023-04-05T21:03:40.784Z,47.70
2023-04-05T21:06:11.144Z,47.60
2023-04-05T21:08:41.178Z,48.00
2023-04-05T21:11:10.815Z,48.00
2023-04-05T21:13:39.156Z,47.80
2023-04-05T21:16:07.530Z,47.90
2023-04-05T21:18:36.173Z,47.80
2023-04-05T21:21:04.192Z,47.40
2023-04-05T21:23:34.441Z,47.50
2023-04-05T21:26:04.361Z,47.80
2023-04-05T21:28:32.623Z,48.00
2023-04-05T21:31:00.578Z,48.20
2023-04-05T21:33:28.526Z,48.30
2023-04-05T21:35:56.404Z,48.40
2023-04-05T21:38:24.277Z,48.70
2023-04-05T21:40:55.220Z,48.80
2023-04-05T21:43:23.027Z,48.70
2023-04-05T21:45:52.770Z,49.00
2023-04-05T21:48:20.646Z,49.00
2023-04-05T21:50:48.678Z,49.30
2023-04-05T21:53:16.475Z,49.60
2023-04-05T21:55:44.624Z,49.70
2023-04-05T21:58:13.777Z,49.80
2023-04-05T22:00:41.886Z,50.20
2023-04-05T22:03:09.765Z,50.40
2023-04-05T22:05:38.883Z,50.60
2023-04-05T22:08:08.147Z,50.70
2023-04-05T22:10:38.148Z,51.00
2023-04-05T22:13:06.048Z,50.80
2023-04-05T22:15:35.394Z,51.00
2023-04-05T22:18:03.951Z,51.00
2023-04-05T22:20:31.878Z,51.40
2023-04-05T22:22:59.685Z,52.30
2023-04-05T22:25:27.662Z,52.50
2023-04-05T22:27:59.500Z,52.70
2023-04-05T22:30:28.276Z,52.40
2023-04-05T22:32:57.639Z,53.10
2023-04-05T22:35:25.639Z,53.20
2023-04-05T22:37:53.504Z,53.20
2023-04-05T22:40:26.239Z,53.10
2023-04-05T22:42:56.415Z,53.60
2023-04-05T22:45:25.017Z,53.70
2023-04-05T22:47:53.194Z,53.90
2023-04-05T22:50:22.485Z,53.80
2023-04-05T22:52:50.730Z,54.20
2023-04-05T22:55:18.645Z,54.00
2023-04-05T22:57:46.484Z,54.40
2023-04-05T23:00:15.765Z,54.60
2023-04-05T23:02:43.975Z,54.90
2023-04-05T23:05:13.275Z,54.90
2023-04-05T23:07:42.533Z,55.10
2023-04-05T23:10:11.587Z,55.40
2023-04-05T23:12:39.476Z,55.50
2023-04-05T23:15:08.104Z,55.50
2023-04-05T23:17:35.964Z,55.70
2023-04-05T23:20:05.818Z,55.70
2023-04-05T23:22:34.835Z,55.70
2023-04-05T23:25:04.435Z,55.80
2023-04-05T23:27:32.526Z,56.00
2023-04-05T23:30:00.755Z,56.00
2023-04-05T23:32:28.661Z,56.00
2023-04-05T23:34:56.503Z,55.90
2023-04-05T23:37:24.365Z,57.50
2023-04-05T23:39:52.196Z,56.30
2023-04-05T23:42:21.428Z,56.30
2023-04-05T23:44:49.686Z,56.50
2023-04-05T23:47:17.481Z,56.30
2023-04-05T23:49:45.350Z,56.40
2023-04-05T23:52:13.648Z,56.50
2023-04-05T23:54:41.519Z,56.50
2023-04-05T23:57:09.532Z,56.70
2023-04-05T23:59:38.777Z,57.20
